Time;durP1;ratioP1;P1;durP2;ratioP2;P2;SDS_P1;SDS_P2;PMS_P1;PMS_P2;Temp;Humidity;BMP_temperature;BMP_pressure;BME280_temperature;BME280_humidity;BME280_pressure;Samples;Min_cycle;Max_cycle;Signal;HPM_P1;HPM_P2
2024/03/15 00:02:16;;;;;;;45.50;40.72;;;11.40;83.40;;;;;;4949028;28;114405;-51
2024/03/15 00:04:42;;;;;;;45.90;40.97;;;11.40;83.40;;;;;;4948969;28;112553;-51
2024/03/15 00:07:08;;;;;;;45.45;40.53;;;11.60;83.10;;;;;;4949955;28;112973;-53
2024/03/15 00:09:34;;;;;;;44.47;39.40;;;11.40;83.50;;;;;;4949590;28;112680;-51
2024/03/15 00:12:03;;;;;;;45.15;40.22;;;11.40;83.40;;;;;;4949231;28;113717;-52
2024/03/15 00:14:28;;;;;;;44.58;39.47;;;11.40;83.30;;;;;;4948755;28;112728;-51
2024/03/15 00:16:55;;;;;;;46.65;39.92;;;11.40;83.70;;;;;;4949439;28;112586;-51
2024/03/15 00:19:21;;;;;;;46.50;40.78;;;11.50;83.50;;;;;;4949882;28;112758;-52
2024/03/15 00:21:47;;;;;;;48.58;41.60;;;11.60;83.20;;;;;;4948510;28;113171;-51
2024/03/15 00:24:14;;;;;;;49.60;44.28;;;11.70;83.10;;;;;;4948796;28;112764;-52
2024/03/15 00:26:40;;;;;;;47.95;42.80;;;11.50;83.70;;;;;;4949573;28;112824;-51
2024/03/15 00:29:06;;;;;;;49.90;44.50;;;11.50;84.10;;;;;;4948348;28;112992;-51
2024/03/15 00:31:32;;;;;;;50.92;45.30;;;11.60;83.70;;;;;;4938460;28;113206;-51
2024/03/15 00:33:57;;;;;;;48.72;43.55;;;11.60;83.70;;;;;;4944904;28;112985;-51
2024/03/15 00:36:24;;;;;;;53.63;45.95;;;11.80;83.60;;;;;;4949274;28;112588;-51
2024/03/15 00:38:52;;;;;;;49.88;44.47;;;11.80;83.60;;;;;;4949137;28;112794;-52
2024/03/15 00:41:18;;;;;;;50.22;43.17;;;11.90;83.50;;;;;;4948695;28;113510;-52
2024/03/15 00:43:47;;;;;;;51.03;45.53;;;11.80;83.10;;;;;;4948270;28;112837;-52
2024/03/15 00:46:14;;;;;;;47.35;41.90;;;11.70;83.70;;;;;;4949118;28;113181;-51
2024/03/15 00:48:43;;;;;;;49.47;43.95;;;11.80;83.50;;;;;;4947904;28;112919;-51
2024/03/15 00:51:09;;;;;;;52.20;46.85;;;11.80;83.10;;;;;;4948299;28;113510;-51
2024/03/15 00:53:36;;;;;;;49.63;43.95;;;11.80;83.10;;;;;;4947823;28;113153;-52
2024/03/15 00:56:06;;;;;;;54.20;46.40;;;11.80;83.40;;;;;;4948983;28;113153;-53
2024/03/15 00:58:32;;;;;;;54.60;48.78;;;11.90;83.10;;;;;;4948792;28;113869;-51
2024/03/15 01:00:59;;;;;;;55.38;49.30;;;11.90;83.00;;;;;;4947146;28;113286;-51
2024/03/15 01:03:25;;;;;;;52.72;44.42;;;11.90;83.30;;;;;;4951928;28;113794;-52
2024/03/15 01:05:51;;;;;;;53.58;47.75;;;11.90;83.40;;;;;;4953102;28;112890;-51
2024/03/15 01:08:20;;;;;;;51.97;46.38;;;11.90;83.10;;;;;;4948441;28;112793;-53
2024/03/15 01:10:46;;;;;;;56.40;48.22;;;11.90;83.00;;;;;;4948817;28;113226;-56
2024/03/15 01:13:12;;;;;;;56.75;48.75;;;11.90;82.90;;;;;;4950087;28;113936;-51
2024/03/15 01:15:38;;;;;;;53.28;47.58;;;11.80;83.30;;;;;;4949866;28;112864;-52
2024/03/15 01:18:04;;;;;;;51.08;45.53;;;11.90;83.60;;;;;;4949359;28;112701;-51
2024/03/15 01:20:32;;;;;;;54.42;48.55;;;11.90;83.30;;;;;;4950488;28;114126;-52
2024/03/15 01:22:58;;;;;;;58.92;49.28;;;11.90;83.00;;;;;;4949457;28;114131;-53
2024/03/15 01:25:24;;;;;;;55.50;49.15;;;11.90;83.20;;;;;;4949711;28;112654;-51
2024/03/15 01:27:49;;;;;;;55.67;49.67;;;11.90;83.30;;;;;;4948452;28;113012;-52
2024/03/15 01:30:15;;;;;;;58.92;52.13;;;11.80;83.50;;;;;;4948107;28;113280;-52
2024/03/15 01:32:41;;;;;;;58.47;51.50;;;11.80;83.60;;;;;;4945661;28;112798;-52
2024/03/15 01:35:07;;;;;;;55.15;49.22;;;11.80;83.60;;;;;;4950603;28;112599;-51
2024/03/15 01:37:36;;;;;;;59.70;48.38;;;11.80;83.50;;;;;;4948850;28;112719;-54
2024/03/15 01:40:02;;;;;;;54.83;49.00;;;11.70;83.80;;;;;;4950050;28;114628;-51
2024/03/15 01:42:28;;;;;;;56.80;50.65;;;11.80;83.90;;;;;;4936872;28;114048;-51
2024/03/15 01:44:55;;;;;;;56.75;50.45;;;11.70;84.00;;;;;;4963284;28;112601;-51
2024/03/15 01:47:25;;;;;;;59.08;52.65;;;11.60;84.00;;;;;;4958245;28;113247;-51
2024/03/15 01:49:53;;;;;;;61.00;54.58;;;11.60;84.30;;;;;;4949498;28;115036;-52
2024/03/15 01:52:23;;;;;;;61.60;54.97;;;11.60;84.20;;;;;;4953453;28;113776;-52
2024/03/15 01:54:48;;;;;;;62.88;56.08;;;11.60;84.20;;;;;;4949025;28;113019;-51
2024/03/15 01:57:15;;;;;;;62.25;53.55;;;11.60;84.10;;;;;;4955293;28;112847;-52
2024/03/15 01:59:41;;;;;;;60.13;53.33;;;11.60;84.00;;;;;;4947255;28;113191;-51
2024/03/15 02:02:09;;;;;;;60.65;54.03;;;11.50;84.00;;;;;;4946248;28;112729;-53
2024/03/15 02:04:35;;;;;;;59.25;52.88;;;11.60;84.10;;;;;;4958985;28;112985;-51
2024/03/15 02:07:02;;;;;;;64.45;55.85;;;11.60;83.80;;;;;;4956478;28;113371;-51
2024/03/15 02:09:28;;;;;;;66.25;59.08;;;11.50;84.20;;;;;;4950859;28;113212;-51
2024/03/15 02:11:57;;;;;;;73.00;62.42;;;11.40;84.40;;;;;;4951216;28;112894;-52
2024/03/15 02:14:23;;;;;;;67.32;59.83;;;11.40;84.40;;;;;;4952352;28;112900;-52
2024/03/15 02:16:49;;;;;;;69.38;60.67;;;11.30;84.90;;;;;;4953690;28;112641;-51
2024/03/15 02:19:15;;;;;;;70.05;60.25;;;11.30;84.80;;;;;;4952584;28;114362;-51
2024/03/15 02:21:41;;;;;;;70.88;62.70;;;11.20;84.80;;;;;;4927816;28;113079;-51
2024/03/15 02:24:07;;;;;;;73.53;63.42;;;11.10;85.10;;;;;;4942786;28;112495;-52
2024/03/15 02:26:33;;;;;;;69.57;62.03;;;11.10;85.20;;;;;;4938433;28;112818;-51
2024/03/15 02:29:02;;;;;;;74.22;66.22;;;11.10;85.00;;;;;;4936382;28;113264;-52
2024/03/15 02:31:30;;;;;;;69.63;61.95;;;11.10;84.90;;;;;;4926871;28;113862;-51
2024/03/15 02:33:56;;;;;;;72.97;64.95;;;11.10;85.10;;;;;;4934911;28;112491;-51
2024/03/15 02:36:21;;;;;;;81.70;70.75;;;11.10;85.10;;;;;;4946698;28;114545;-51
2024/03/15 02:38:47;;;;;;;79.63;70.85;;;11.10;85.10;;;;;;4945974;28;113465;-51
2024/03/15 02:41:15;;;;;;;75.20;67.03;;;11.00;85.30;;;;;;4946822;28;112551;-51
2024/03/15 02:43:41;;;;;;;79.30;70.70;;;10.90;85.20;;;;;;4947302;28;112633;-51
2024/03/15 02:46:07;;;;;;;78.53;69.97;;;10.90;85.50;;;;;;4947489;28;112913;-51
2024/03/15 02:48:35;;;;;;;82.30;73.07;;;10.90;85.40;;;;;;4946281;28;113246;-52
2024/03/15 02:51:01;;;;;;;87.63;74.65;;;10.80;85.50;;;;;;4946455;28;112943;-51
2024/03/15 02:53:27;;;;;;;77.90;69.40;;;10.70;85.60;;;;;;4947491;28;113547;-53
2024/03/15 02:55:53;;;;;;;78.47;69.72;;;10.60;86.00;;;;;;4947199;28;112786;-51
2024/03/15 02:58:19;;;;;;;78.32;69.72;;;10.70;86.00;;;;;;4946026;28;114529;-51
2024/03/15 03:00:48;;;;;;;78.63;69.10;;;10.60;86.20;;;;;;4945893;28;112657;-51
2024/03/15 03:03:14;;;;;;;90.45;75.32;;;10.70;86.00;;;;;;4946821;28;112546;-51
2024/03/15 03:05:40;;;;;;;80.50;70.50;;;10.60;86.40;;;;;;4947305;28;112726;-55
2024/03/15 03:08:05;;;;;;;78.38;69.90;;;10.80;86.40;;;;;;4944620;28;116136;-52
2024/03/15 03:10:31;;;;;;;81.93;72.40;;;10.80;86.10;;;;;;4946153;28;112854;-51
2024/03/15 03:12:57;;;;;;;88.00;74.57;;;10.90;86.20;;;;;;4947596;28;112849;-51
2024/03/15 03:15:23;;;;;;;82.55;73.60;;;10.90;86.10;;;;;;4947127;28;112706;-51
2024/03/15 03:17:48;;;;;;;85.43;75.63;;;11.00;86.10;;;;;;4946233;28;114395;-52
2024/03/15 03:20:23;;;;;;;80.55;70.70;;;11.00;86.10;;;;;;4946251;28;112717;-52
2024/03/15 03:22:51;;;;;;;79.90;71.30;;;11.10;85.70;;;;;;4946866;28;112588;-51
2024/03/15 03:25:19;;;;;;;73.80;65.60;;;11.00;85.80;;;;;;4947054;28;112774;-52
2024/03/15 03:27:44;;;;;;;81.32;71.40;;;11.10;85.60;;;;;;4945680;28;113381;-51
2024/03/15 03:30:10;;;;;;;77.55;69.22;;;11.10;85.60;;;;;;4945689;28;113788;-51
2024/03/15 03:32:36;;;;;;;79.85;70.63;;;11.10;85.80;;;;;;4939262;28;113156;-51
2024/03/15 03:35:04;;;;;;;85.07;74.80;;;11.00;85.80;;;;;;4946634;28;112639;-51
2024/03/15 03:37:31;;;;;;;84.50;74.07;;;10.90;86.40;;;;;;4949189;28;113272;-55
2024/03/15 03:39:56;;;;;;;83.35;73.57;;;11.00;86.30;;;;;;4947683;28;115106;-51
2024/03/15 03:42:23;;;;;;;84.30;74.90;;;10.90;86.60;;;;;;4950395;28;113161;-52
2024/03/15 03:44:49;;;;;;;80.90;71.35;;;11.00;86.50;;;;;;4950439;28;112647;-51
2024/03/15 03:47:16;;;;;;;83.80;73.10;;;11.00;86.40;;;;;;4949237;28;113860;-51
2024/03/15 03:49:41;;;;;;;85.75;73.70;;;11.00;86.60;;;;;;4948735;28;113127;-51
2024/03/15 03:52:07;;;;;;;89.18;74.85;;;11.00;86.70;;;;;;4950079;28;112663;-51
2024/03/15 03:54:33;;;;;;;86.40;74.70;;;10.90;86.80;;;;;;4950466;28;112624;-51
2024/03/15 03:56:59;;;;;;;87.45;75.43;;;10.90;86.90;;;;;;4948890;28;113163;-51
2024/03/15 03:59:27;;;;;;;88.50;74.22;;;11.10;86.70;;;;;;4949249;28;112989;-54
2024/03/15 04:01:53;;;;;;;87.07;75.63;;;11.00;86.60;;;;;;4948607;28;112991;-51
2024/03/15 04:04:21;;;;;;;88.38;75.32;;;10.90;87.00;;;;;;4949821;28;112844;-51
2024/03/15 04:06:49;;;;;;;84.10;73.85;;;10.90;87.20;;;;;;4949066;28;113330;-51
2024/03/15 04:09:16;;;;;;;89.45;75.47;;;10.90;87.30;;;;;;4948568;28;114650;-51
2024/03/15 04:11:42;;;;;;;87.13;75.22;;;10.90;86.90;;;;;;4950394;28;112477;-50
2024/03/15 04:14:08;;;;;;;93.55;80.50;;;11.10;86.70;;;;;;4949690;28;113831;-51
2024/03/15 04:16:34;;;;;;;83.72;74.00;;;11.10;86.60;;;;;;4949009;28;113389;-52
2024/03/15 04:19:00;;;;;;;88.03;74.18;;;11.10;86.40;;;;;;4947322;28;113805;-51
2024/03/15 04:21:25;;;;;;;84.32;71.72;;;11.20;86.30;;;;;;4949405;28;113166;-52
2024/03/15 04:23:55;;;;;;;85.80;72.22;;;11.10;86.30;;;;;;4948257;28;112756;-51
2024/03/15 04:26:21;;;;;;;84.95;71.95;;;11.10;86.60;;;;;;4948395;28;114527;-54
2024/03/15 04:28:49;;;;;;;80.97;70.47;;;11.20;86.30;;;;;;4948406;28;113053;-52
2024/03/15 04:31:16;;;;;;;85.22;74.00;;;11.10;86.60;;;;;;4948587;28;113264;-52
2024/03/15 04:33:42;;;;;;;84.95;69.72;;;11.20;86.50;;;;;;4935713;28;112787;-55
2024/03/15 04:36:08;;;;;;;95.22;79.13;;;11.10;86.50;;;;;;4947604;28;113802;-52
2024/03/15 04:38:33;;;;;;;89.30;74.78;;;11.20;86.50;;;;;;4945373;28;114371;-51
2024/03/15 04:41:09;;;;;;;89.47;74.32;;;11.30;86.10;;;;;;4949415;28;112543;-51
2024/03/15 04:43:36;;;;;;;88.00;72.90;;;11.20;86.20;;;;;;4947578;28;113738;-51
2024/03/15 04:46:03;;;;;;;88.93;71.95;;;11.30;86.10;;;;;;4948445;28;113158;-53
2024/03/15 04:48:29;;;;;;;89.55;73.95;;;11.30;86.30;;;;;;4948175;28;112649;-51
2024/03/15 04:50:55;;;;;;;85.43;70.15;;;11.40;86.00;;;;;;4949241;28;114440;-51
2024/03/15 04:53:21;;;;;;;85.30;69.97;;;11.40;86.00;;;;;;4949060;28;112715;-51
2024/03/15 04:55:46;;;;;;;86.47;71.38;;;11.40;85.90;;;;;;4948128;28;113680;-51
2024/03/15 04:58:12;;;;;;;93.40;74.50;;;11.30;86.00;;;;;;4948280;28;112854;-53
2024/03/15 05:00:38;;;;;;;82.40;69.15;;;11.40;86.00;;;;;;4949118;28;112475;-52
2024/03/15 05:03:04;;;;;;;91.15;74.50;;;11.30;86.10;;;;;;4948816;28;112726;-52
2024/03/15 05:05:30;;;;;;;89.63;72.28;;;11.40;86.10;;;;;;4948076;28;113292;-52
2024/03/15 05:07:56;;;;;;;88.78;73.63;;;11.30;86.00;;;;;;4946975;28;112979;-52
2024/03/15 05:10:22;;;;;;;87.88;71.88;;;11.40;86.00;;;;;;4947895;28;112973;-53
2024/03/15 05:12:50;;;;;;;86.47;71.05;;;11.40;86.10;;;;;;4949555;28;112825;-51
2024/03/15 05:15:17;;;;;;;94.28;74.07;;;11.40;86.10;;;;;;4947831;28;113427;-53
2024/03/15 05:17:42;;;;;;;95.50;74.70;;;11.30;86.30;;;;;;4948032;28;113132;-51
2024/03/15 05:20:12;;;;;;;82.93;69.65;;;11.30;86.30;;;;;;4948590;28;112728;-52
2024/03/15 05:22:39;;;;;;;88.25;71.03;;;11.30;86.20;;;;;;4948807;28;112688;-55
2024/03/15 05:25:10;;;;;;;87.40;71.57;;;11.40;85.90;;;;;;4947508;28;113326;-52
2024/03/15 05:27:36;;;;;;;89.13;71.15;;;11.40;86.10;;;;;;4947115;28;112661;-53
2024/03/15 05:30:03;;;;;;;85.22;69.93;;;11.40;86.00;;;;;;4948532;28;112610;-51
2024/03/15 05:32:29;;;;;;;86.82;68.13;;;11.40;85.90;;;;;;4938256;28;112676;-51
2024/03/15 05:34:55;;;;;;;84.18;67.38;;;11.40;85.80;;;;;;4942588;28;114578;-55
2024/03/15 05:37:21;;;;;;;80.97;66.35;;;11.40;86.00;;;;;;4947304;28;112813;-51
2024/03/15 05:39:48;;;;;;;85.05;66.32;;;11.40;85.90;;;;;;4947908;28;112717;-52
2024/03/15 05:42:13;;;;;;;90.60;69.93;;;11.40;85.90;;;;;;4947175;28;113682;-51
2024/03/15 05:44:39;;;;;;;85.78;66.68;;;11.50;85.80;;;;;;4947181;28;114440;-51
2024/03/15 05:47:05;;;;;;;83.20;65.63;;;11.50;85.70;;;;;;4947101;28;112734;-51
2024/03/15 05:49:30;;;;;;;87.90;65.82;;;11.50;85.60;;;;;;4947932;28;113446;-52
2024/03/15 05:51:56;;;;;;;82.95;66.22;;;11.60;85.60;;;;;;4948196;28;112819;-51
2024/03/15 05:54:22;;;;;;;83.75;66.22;;;11.60;85.50;;;;;;4946670;28;113230;-54
2024/03/15 05:56:47;;;;;;;93.07;69.10;;;11.60;85.70;;;;;;4947587;28;113354;-51
2024/03/15 05:59:13;;;;;;;88.05;67.22;;;11.60;85.60;;;;;;4948059;28;112792;-51
2024/03/15 06:01:39;;;;;;;81.70;66.20;;;11.60;85.60;;;;;;4948480;28;112660;-53
2024/03/15 06:04:05;;;;;;;88.20;68.45;;;11.60;85.40;;;;;;4946837;28;113643;-51
2024/03/15 06:06:33;;;;;;;85.80;66.03;;;11.70;85.50;;;;;;4947021;28;113689;-54
2024/03/15 06:09:00;;;;;;;91.40;67.30;;;11.70;85.40;;;;;;4947619;28;112969;-51
2024/03/15 06:11:27;;;;;;;96.72;70.97;;;11.70;85.30;;;;;;4948557;28;112753;-51
2024/03/15 06:13:53;;;;;;;92.40;68.43;;;11.80;85.20;;;;;;4946699;28;113627;-51
2024/03/15 06:16:25;;;;;;;97.53;70.72;;;11.80;85.20;;;;;;4945768;28;112642;-51
2024/03/15 06:18:51;;;;;;;;;;;11.70;85.50;;;;;;4948191;28;112779;-51
2024/03/15 06:21:17;;;;;;;89.82;68.80;;;11.80;85.20;;;;;;4949771;28;112879;-52
2024/03/15 06:23:43;;;;;;;94.63;69.15;;;11.80;85.30;;;;;;4946726;28;114174;-53
2024/03/15 06:26:09;;;;;;;94.97;70.80;;;11.80;85.10;;;;;;4945723;28;112879;-51
2024/03/15 06:28:36;;;;;;;92.93;71.18;;;11.90;84.90;;;;;;4947817;28;112568;-51
2024/03/15 06:31:04;;;;;;;97.95;71.50;;;11.90;84.70;;;;;;4947164;28;112873;-52
2024/03/15 06:33:33;;;;;;;94.28;70.72;;;11.80;84.90;;;;;;4943806;28;113857;-52
2024/03/15 06:36:03;;;;;;;98.22;69.55;;;11.80;84.80;;;;;;4946816;28;113138;-51
2024/03/15 06:38:51;;;;;;;97.07;71.30;;;11.80;84.80;;;;;;4947354;28;112712;-52
2024/03/15 06:44:00;;;;;;;91.00;66.95;;;12.00;84.30;;;;;;4944534;28;116064;-51
2024/03/15 06:46:30;;;;;;;88.82;67.00;;;12.10;83.80;;;;;;4946448;28;113818;-52
2024/03/15 06:48:57;;;;;;;95.70;70.63;;;12.20;83.70;;;;;;4947055;28;112524;-51
2024/03/15 06:54:12;;;;;;;91.13;67.93;;;12.10;84.10;;;;;;4945807;28;112978;-52
2024/03/15 06:56:38;;;;;;;92.18;67.85;;;12.10;84.00;;;;;;4946369;28;114056;-52
2024/03/15 06:59:09;;;;;;;87.70;66.22;;;12.10;84.10;;;;;;4947487;28;112465;-52
2024/03/15 07:01:35;;;;;;;91.43;68.57;;;12.20;83.90;;;;;;4947470;28;112802;-51
2024/03/15 07:04:01;;;;;;;103.65;74.18;;;12.10;83.60;;;;;;4945529;28;114489;-51
2024/03/15 07:06:30;;;;;;;87.00;65.70;;;12.00;83.80;;;;;;4945113;28;112784;-51
2024/03/15 07:08:57;;;;;;;93.85;66.40;;;12.10;83.80;;;;;;4946858;28;113025;-51
2024/03/15 07:11:28;;;;;;;87.57;63.83;;;11.90;84.00;;;;;;4946358;28;112751;-52
2024/03/15 07:13:56;;;;;;;90.53;65.07;;;12.00;84.00;;;;;;4944669;28;114594;-52
2024/03/15 07:16:23;;;;;;;87.80;62.83;;;12.20;83.80;;;;;;4946152;28;113729;-52
2024/03/15 07:18:49;;;;;;;88.05;62.92;;;12.20;83.70;;;;;;4946984;28;112505;-52
2024/03/15 07:21:16;;;;;;;89.63;60.35;;;12.20;83.70;;;;;;4946535;28;112874;-51
2024/03/15 07:23:42;;;;;;;87.97;60.60;;;12.20;83.30;;;;;;4936755;28;113876;-51
2024/03/15 07:26:10;;;;;;;88.18;59.28;;;12.20;83.20;;;;;;4946088;28;112815;-52
2024/03/15 07:28:38;;;;;;;83.25;59.25;;;12.30;83.30;;;;;;4946800;28;113865;-51
2024/03/15 07:31:04;;;;;;;85.65;59.53;;;12.30;83.30;;;;;;4946727;28;112698;-52
2024/03/15 07:33:31;;;;;;;88.63;61.63;;;12.20;83.40;;;;;;4931336;28;113237;-52
2024/03/15 07:36:01;;;;;;;88.10;59.38;;;12.20;83.10;;;;;;4945863;28;114323;-52
2024/03/15 07:38:27;;;;;;;81.53;55.47;;;12.30;83.40;;;;;;4945556;28;113023;-51
2024/03/15 07:40:54;;;;;;;83.00;56.92;;;12.30;83.40;;;;;;4938986;28;113123;-51
2024/03/15 07:43:20;;;;;;;83.47;57.83;;;12.40;83.30;;;;;;4935960;28;114854;-52
2024/03/15 07:45:47;;;;;;;78.68;56.60;;;12.30;83.30;;;;;;4932550;28;112826;-51
2024/03/15 07:48:14;;;;;;;82.28;55.20;;;12.50;83.00;;;;;;4940307;28;112804;-52
2024/03/15 07:50:41;;;;;;;82.35;55.65;;;12.40;83.10;;;;;;4936866;28;112776;-52
2024/03/15 07:53:08;;;;;;;79.28;54.45;;;12.40;82.70;;;;;;4941695;28;113426;-52
2024/03/15 07:55:37;;;;;;;76.90;53.63;;;12.50;82.80;;;;;;4928682;28;113183;-52
2024/03/15 07:58:03;;;;;;;81.05;53.83;;;12.50;82.70;;;;;;4926961;28;113067;-51
2024/03/15 08:00:32;;;;;;;77.22;53.22;;;12.40;83.40;;;;;;4929448;28;112754;-54
2024/03/15 08:02:57;;;;;;;81.45;54.13;;;12.50;83.10;;;;;;4925924;28;113439;-51
2024/03/15 08:05:27;;;;;;;83.93;54.15;;;12.40;83.30;;;;;;4930301;28;113096;-52
2024/03/15 08:07:52;;;;;;;82.63;53.30;;;12.40;83.50;;;;;;4929394;28;112618;-54
2024/03/15 08:10:20;;;;;;;78.20;51.20;;;12.40;83.60;;;;;;4935042;28;114477;-51
2024/03/15 08:12:46;;;;;;;74.47;49.50;;;12.40;83.40;;;;;;4926626;28;114248;-51
2024/03/15 08:15:13;;;;;;;85.13;51.65;;;12.60;82.90;;;;;;4929715;28;113266;-53
2024/03/15 08:17:40;;;;;;;80.53;52.65;;;12.70;82.70;;;;;;4930154;28;113005;-52
2024/03/15 08:20:08;;;;;;;88.05;55.17;;;12.60;82.50;;;;;;4933026;28;112800;-52
2024/03/15 08:22:37;;;;;;;82.40;53.20;;;12.80;82.20;;;;;;4935921;28;113214;-51
2024/03/15 08:25:06;;;;;;;82.35;52.92;;;12.80;82.20;;;;;;4931932;28;112904;-51
2024/03/15 08:27:35;;;;;;;87.18;54.67;;;12.70;82.70;;;;;;4932209;28;112666;-53
2024/03/15 08:30:03;;;;;;;91.97;56.15;;;12.80;82.80;;;;;;4932607;28;112715;-51
2024/03/15 08:32:29;;;;;;;93.80;56.10;;;12.90;81.80;;;;;;4934803;28;113402;-51
2024/03/15 08:34:58;;;;;;;88.68;53.45;;;12.90;82.30;;;;;;4943652;28;113102;-52
2024/03/15 08:37:24;;;;;;;89.13;52.30;;;12.90;82.30;;;;;;4944905;28;114074;-51
2024/03/15 08:39:53;;;;;;;89.18;51.53;;;12.90;82.60;;;;;;4934584;28;114783;-52
2024/03/15 08:42:18;;;;;;;86.45;50.97;;;13.00;82.30;;;;;;4939147;28;114638;-52
2024/03/15 08:44:46;;;;;;;86.10;49.97;;;13.00;82.00;;;;;;4933855;28;113292;-52
2024/03/15 08:47:12;;;;;;;84.03;47.95;;;12.90;82.30;;;;;;4930597;28;112936;-52
2024/03/15 08:49:38;;;;;;;76.95;46.63;;;13.10;82.20;;;;;;4942011;28;113508;-51
2024/03/15 08:52:04;;;;;;;75.50;44.67;;;12.90;82.40;;;;;;4935310;28;116178;-51
2024/03/15 08:54:33;;;;;;;78.28;46.85;;;12.90;82.90;;;;;;4930854;28;113216;-52
2024/03/15 08:57:01;;;;;;;72.72;43.65;;;12.90;82.90;;;;;;4937494;28;112748;-51
2024/03/15 08:59:27;;;;;;;81.38;44.38;;;13.00;82.80;;;;;;4945822;28;114556;-51
2024/03/15 09:01:54;;;;;;;78.60;42.13;;;13.30;82.40;;;;;;4945988;28;113177;-52
2024/03/15 09:04:22;;;;;;;77.82;43.47;;;13.40;82.00;;;;;;4931854;28;112767;-54
2024/03/15 09:06:49;;;;;;;79.30;43.22;;;13.60;81.30;;;;;;4941712;28;112664;-54
2024/03/15 09:09:15;;;;;;;74.90;41.58;;;13.40;81.50;;;;;;4940632;28;112865;-52
2024/03/15 09:11:43;;;;;;;72.78;39.30;;;13.30;81.70;;;;;;4939317;28;113207;-52
2024/03/15 09:14:10;;;;;;;60.22;36.47;;;13.30;82.10;;;;;;4944749;28;113699;-51
2024/03/15 09:16:37;;;;;;;65.18;37.03;;;13.50;82.00;;;;;;4938407;28;112567;-51
2024/03/15 09:19:03;;;;;;;68.00;37.95;;;13.70;82.00;;;;;;4943290;28;113012;-53
2024/03/15 09:21:32;;;;;;;80.35;41.00;;;13.90;80.60;;;;;;4935877;28;113509;-52
2024/03/15 09:24:00;;;;;;;72.35;40.40;;;13.90;80.80;;;;;;4944744;28;112668;-51
2024/03/15 09:26:27;;;;;;;67.50;38.22;;;13.90;80.80;;;;;;4933426;28;112723;-51
2024/03/15 09:28:55;;;;;;;75.85;40.17;;;14.10;80.20;;;;;;4932186;28;112747;-52
2024/03/15 09:31:24;;;;;;;67.68;38.60;;;14.00;79.70;;;;;;4935482;28;114541;-51
2024/03/15 09:33:51;;;;;;;59.05;34.90;;;14.00;80.10;;;;;;4934237;28;114263;-52
2024/03/15 09:36:18;;;;;;;70.93;38.53;;;14.10;79.90;;;;;;4938791;28;112996;-52
2024/03/15 09:38:46;;;;;;;61.80;36.63;;;14.00;79.90;;;;;;4929610;28;112836;-51
2024/03/15 09:41:16;;;;;;;56.85;35.00;;;14.30;79.30;;;;;;4930115;28;114905;-52
2024/03/15 09:43:45;;;;;;;45.70;29.10;;;14.30;78.90;;;;;;4930958;28;113124;-52
2024/03/15 09:46:18;;;;;;;49.78;29.48;;;14.20;79.20;;;;;;4930413;28;112862;-51
2024/03/15 09:48:44;;;;;;;51.60;32.20;;;14.10;79.30;;;;;;4932360;28;112658;-52
2024/03/15 09:51:15;;;;;;;53.08;32.55;;;14.20;79.80;;;;;;4930474;28;113877;-52
2024/03/15 09:53:41;;;;;;;51.67;32.65;;;14.40;79.00;;;;;;4932399;28;113767;-52
2024/03/15 09:56:15;;;;;;;49.42;31.83;;;14.60;78.60;;;;;;4932887;28;112750;-52
2024/03/15 09:58:42;;;;;;;48.50;31.98;;;14.70;77.70;;;;;;4933253;28;112645;-51
2024/03/15 10:01:15;;;;;;;51.22;31.58;;;14.60;77.90;;;;;;4940184;28;113203;-52
2024/03/15 10:03:48;;;;;;;54.30;32.85;;;14.70;76.80;;;;;;4942973;28;113990;-52
2024/03/15 10:06:19;;;;;;;48.63;31.17;;;14.80;77.50;;;;;;4940816;28;112642;-51
2024/03/15 10:08:44;;;;;;;47.83;31.15;;;14.70;77.60;;;;;;4942651;28;112830;-53
2024/03/15 10:11:10;;;;;;;49.47;30.23;;;14.60;77.60;;;;;;4938181;28;113321;-52
2024/03/15 10:13:36;;;;;;;45.75;29.95;;;14.70;77.10;;;;;;4943283;28;114268;-52
2024/03/15 10:16:04;;;;;;;46.30;29.20;;;14.70;76.40;;;;;;4940031;28;112619;-52
2024/03/15 10:18:34;;;;;;;38.85;27.65;;;14.80;76.20;;;;;;4942448;28;113260;-57
2024/03/15 10:20:59;;;;;;;42.53;27.75;;;14.90;75.20;;;;;;4940224;28;113483;-53
2024/03/15 10:23:25;;;;;;;44.65;28.33;;;14.70;75.40;;;;;;4941538;28;112704;-52
2024/03/15 10:25:52;;;;;;;46.63;28.63;;;14.60;76.40;;;;;;4943113;28;113302;-51
2024/03/15 10:28:19;;;;;;;47.30;29.75;;;14.90;76.40;;;;;;4943608;28;112789;-52
2024/03/15 10:30:49;;;;;;;45.08;29.90;;;14.80;76.10;;;;;;4933765;28;114396;-52
2024/03/15 10:33:16;;;;;;;45.85;31.17;;;14.90;75.60;;;;;;4928790;28;115644;-53
2024/03/15 10:35:42;;;;;;;42.05;29.55;;;15.00;75.00;;;;;;4947548;28;112883;-51
2024/03/15 10:38:15;;;;;;;42.35;30.65;;;15.00;74.80;;;;;;4933819;28;112987;-51
2024/03/15 10:40:41;;;;;;;41.67;29.52;;;14.80;75.30;;;;;;4933463;28;113265;-51
2024/03/15 10:43:13;;;;;;;36.95;27.42;;;14.80;75.90;;;;;;4943560;28;112990;-52
2024/03/15 10:45:47;;;;;;;41.88;29.75;;;14.90;75.40;;;;;;4941808;28;112898;-52
2024/03/15 10:48:15;;;;;;;40.35;29.48;;;15.00;75.10;;;;;;4944540;28;112530;-52
2024/03/15 10:50:42;;;;;;;39.75;30.13;;;15.20;74.90;;;;;;4933511;28;114625;-52
2024/03/15 10:53:14;;;;;;;41.70;31.85;;;15.20;74.40;;;;;;4938181;28;114018;-53
2024/03/15 10:55:42;;;;;;;40.75;30.85;;;15.40;74.00;;;;;;4931482;28;112598;-51
2024/03/15 10:58:08;;;;;;;41.00;30.63;;;15.50;73.50;;;;;;4943835;28;112733;-52
2024/03/15 11:00:34;;;;;;;41.55;31.83;;;15.40;73.60;;;;;;4940574;28;113353;-52
2024/03/15 11:03:18;;;;;;;44.20;33.28;;;15.30;74.10;;;;;;4938103;28;112672;-52
2024/03/15 11:05:47;;;;;;;41.55;32.50;;;15.60;72.70;;;;;;4942597;28;112877;-51
2024/03/15 11:08:24;;;;;;;41.53;33.28;;;15.80;72.00;;;;;;4945972;28;112655;-52
2024/03/15 11:10:59;;;;;;;36.30;31.92;;;16.00;71.40;;;;;;4931675;28;113375;-54
2024/03/15 11:13:25;;;;;;;37.13;31.05;;;16.10;70.20;;;;;;4945089;28;113913;-53
2024/03/15 11:15:55;;;;;;;41.55;31.30;;;16.20;71.10;;;;;;4932850;28;112730;-51
2024/03/15 11:18:21;;;;;;;36.95;31.67;;;16.80;69.10;;;;;;4945734;28;112884;-51
2024/03/15 11:20:54;;;;;;;37.05;30.52;;;16.90;69.20;;;;;;4943951;28;113685;-52
2024/03/15 11:23:27;;;;;;;36.92;30.42;;;17.00;67.90;;;;;;4933150;28;113491;-53
2024/03/15 11:25:57;;;;;;;39.60;33.78;;;16.90;67.60;;;;;;4945031;28;112908;-51
2024/03/15 11:28:24;;;;;;;40.63;32.95;;;17.00;67.50;;;;;;4933371;28;112623;-52
2024/03/15 11:30:49;;;;;;;39.35;32.33;;;16.60;69.00;;;;;;4944537;28;114483;-52
2024/03/15 11:33:16;;;;;;;42.80;34.78;;;16.30;69.60;;;;;;4929259;28;114951;-52
2024/03/15 11:35:43;;;;;;;38.35;31.85;;;17.00;67.70;;;;;;4927303;28;112583;-52
2024/03/15 11:38:13;;;;;;;38.92;31.88;;;17.10;67.50;;;;;;4946394;28;112764;-51
2024/03/15 11:40:40;;;;;;;41.83;33.60;;;17.90;65.80;;;;;;4946086;28;113261;-52
2024/03/15 11:43:13;;;;;;;36.33;31.90;;;17.60;65.40;;;;;;4945371;28;114219;-52
2024/03/15 11:45:43;;;;;;;39.72;33.40;;;18.30;64.40;;;;;;4929366;28;114108;-52
2024/03/15 11:48:18;;;;;;;40.20;34.08;;;18.50;63.60;;;;;;4942157;28;113351;-53
2024/03/15 11:50:45;;;;;;;38.67;34.45;;;18.80;62.20;;;;;;4938091;28;115057;-53
2024/03/15 11:53:12;;;;;;;38.00;33.47;;;18.80;62.20;;;;;;4942600;28;113105;-53
2024/03/15 11:55:48;;;;;;;36.67;31.63;;;19.30;61.10;;;;;;4941901;28;113015;-55
2024/03/15 11:58:19;;;;;;;39.00;34.17;;;19.30;61.70;;;;;;4945331;28;113613;-52
2024/03/15 12:00:47;;;;;;;43.45;35.95;;;19.60;59.80;;;;;;4941120;28;113294;-53
2024/03/15 12:03:14;;;;;;;43.53;35.78;;;19.60;59.20;;;;;;4936231;28;113206;-52
2024/03/15 12:05:43;;;;;;;43.60;37.03;;;20.40;57.10;;;;;;4933657;28;113091;-52
2024/03/15 12:08:14;;;;;;;39.55;35.28;;;20.20;56.60;;;;;;4929698;28;112856;-52
2024/03/15 12:10:40;;;;;;;38.47;34.35;;;20.10;56.20;;;;;;4933895;28;113354;-52
2024/03/15 12:13:17;;;;;;;39.40;35.17;;;21.10;54.30;;;;;;4929784;28;112933;-56
2024/03/15 12:15:44;;;;;;;37.92;33.67;;;20.30;57.00;;;;;;4930241;28;112697;-54
2024/03/15 12:18:16;;;;;;;38.25;34.25;;;21.00;55.40;;;;;;4930331;28;112850;-52
2024/03/15 12:20:45;;;;;;;38.35;34.15;;;20.30;55.90;;;;;;4934377;28;113185;-53
2024/03/15 12:23:19;;;;;;;40.63;33.78;;;19.50;58.50;;;;;;4928712;28;112846;-52
2024/03/15 12:25:45;;;;;;;37.83;33.72;;;19.30;60.10;;;;;;4930023;28;112620;-52